createdAt,value
2023-02-23T00:01:54.600Z,76.74
2023-02-23T00:04:23.586Z,76.46
2023-02-23T00:06:53.631Z,76.87
2023-02-23T00:09:24.084Z,77.17
2023-02-23T00:11:53.253Z,76.55
2023-02-23T00:14:20.600Z,77.05
2023-02-23T00:16:47.313Z,77.20
2023-02-23T00:19:14.117Z,76.23
2023-02-23T00:21:41.773Z,76.55
2023-02-23T00:24:10.985Z,76.84
2023-02-23T00:26:39.510Z,77.06
2023-02-23T00:29:09.436Z,76.32
2023-02-23T00:31:38.707Z,77.00
2023-02-23T00:34:06.095Z,76.83
2023-02-23T00:36:34.599Z,76.78
2023-02-23T00:39:17.342Z,77.36
2023-02-23T00:41:46.459Z,77.32
2023-02-23T00:44:15.353Z,77.70
2023-02-23T00:46:43.653Z,77.78
2023-02-23T00:49:12.913Z,77.49
2023-02-23T00:51:40.010Z,77.08
2023-02-23T00:54:08.049Z,78.50
2023-02-23T00:56:34.982Z,77.53
2023-02-23T00:59:01.833Z,78.15
2023-02-23T01:01:28.451Z,78.14
2023-02-23T01:03:55.006Z,77.99
2023-02-23T01:06:22.469Z,77.82
2023-02-23T01:08:52.138Z,77.95
2023-02-23T01:11:21.284Z,78.84
2023-02-23T01:13:50.073Z,78.06
2023-02-23T01:16:18.961Z,78.79
2023-02-23T01:18:46.279Z,78.03
2023-02-23T01:21:22.927Z,78.70
2023-02-23T01:23:51.117Z,78.12
2023-02-23T01:26:23.439Z,78.31
2023-02-23T01:28:51.270Z,79.05
2023-02-23T01:31:19.103Z,78.79
2023-02-23T01:33:46.155Z,78.54
2023-02-23T01:36:13.336Z,78.64
2023-02-23T01:38:41.169Z,77.98
2023-02-23T01:41:09.131Z,78.14
2023-02-23T01:43:54.317Z,78.36
2023-02-23T01:46:20.958Z,79.35
2023-02-23T01:48:48.688Z,79.01
2023-02-23T01:51:22.846Z,79.61
2023-02-23T01:54:00.186Z,79.12
2023-02-23T01:56:31.920Z,79.11
2023-02-23T01:59:01.873Z,79.29
2023-02-23T02:01:30.245Z,79.31
2023-02-23T02:04:00.355Z,79.49
2023-02-23T02:06:28.868Z,79.76
2023-02-23T02:08:59.986Z,79.41
2023-02-23T02:11:30.837Z,80.03
2023-02-23T02:14:03.790Z,79.73
2023-02-23T02:16:42.478Z,80.46
2023-02-23T02:19:18.716Z,79.48
2023-02-23T02:22:04.882Z,78.96
2023-02-23T02:25:12.753Z,79.80
2023-02-23T02:27:51.473Z,79.97
2023-02-23T02:30:46.263Z,80.31
2023-02-23T02:33:53.623Z,79.97
2023-02-23T02:36:51.008Z,79.80
2023-02-23T02:39:35.667Z,80.35
2023-02-23T02:42:43.726Z,80.65
2023-02-23T02:45:27.134Z,80.15
2023-02-23T02:48:18.405Z,80.32
2023-02-23T02:50:50.733Z,80.64
2023-02-23T02:53:33.934Z,80.90
2023-02-23T02:56:05.483Z,80.64
2023-02-23T02:58:33.590Z,80.46
2023-02-23T03:01:26.580Z,81.58
2023-02-23T03:04:12.173Z,80.83
2023-02-23T03:07:23.034Z,81.01
2023-02-23T03:10:16.911Z,82.04
2023-02-23T03:13:14.020Z,81.87
2023-02-23T03:16:08.351Z,82.35
2023-02-23T03:19:12.146Z,81.43
2023-02-23T03:22:12.196Z,81.28
2023-02-23T03:25:15.697Z,82.31
2023-02-23T03:28:10.775Z,82.59
2023-02-23T03:31:06.932Z,82.49
2023-02-23T03:34:03.457Z,82.38
2023-02-23T03:36:55.224Z,81.84
2023-02-23T03:39:48.998Z,82.13
2023-02-23T03:42:38.580Z,82.50
2023-02-23T03:45:29.985Z,82.92
2023-02-23T03:48:18.265Z,82.62
2023-02-23T03:51:10.746Z,82.74
2023-02-23T03:54:08.212Z,83.89
2023-02-23T03:56:57.184Z,82.54
2023-02-23T03:59:48.656Z,83.44
2023-02-23T04:02:36.948Z,83.18
2023-02-23T04:05:29.389Z,83.87
2023-02-23T04:08:17.244Z,83.18
2023-02-23T04:11:10.392Z,83.53
2023-02-23T04:13:40.201Z,83.22
2023-02-23T04:16:11.477Z,83.63
2023-02-23T04:18:39.707Z,83.76
2023-02-23T04:21:07.261Z,83.72
2023-02-23T04:23:35.058Z,83.37
2023-02-23T04:26:01.732Z,84.13
2023-02-23T04:28:29.488Z,83.41
2023-02-23T04:30:56.225Z,83.59
2023-02-23T04:33:24.977Z,83.98
2023-02-23T04:35:53.923Z,83.87
2023-02-23T04:38:21.106Z,84.29
2023-02-23T04:40:47.948Z,83.67
2023-02-23T04:43:15.072Z,84.24
2023-02-23T04:45:42.178Z,84.82
2023-02-23T04:48:08.792Z,85.04
2023-02-23T04:50:35.766Z,84.35
2023-02-23T04:53:02.345Z,84.32
2023-02-23T04:55:29.039Z,84.25
2023-02-23T04:58:01.270Z,84.73
2023-02-23T05:00:29.461Z,84.62
2023-02-23T05:02:57.200Z,84.92
2023-02-23T05:05:23.817Z,84.38
2023-02-23T05:07:50.360Z,84.80
2023-02-23T05:10:17.056Z,85.14
2023-02-23T05:12:43.643Z,84.65
2023-02-23T05:15:11.142Z,84.81
2023-02-23T05:17:42.054Z,84.33
2023-02-23T05:20:13.780Z,84.35
2023-02-23T05:22:40.724Z,84.36
2023-02-23T05:25:08.769Z,84.21
2023-02-23T05:27:35.329Z,84.65
2023-02-23T05:30:02.637Z,84.24
2023-02-23T05:32:29.662Z,84.85
2023-02-23T05:34:56.532Z,84.95
2023-02-23T05:37:23.080Z,84.88
2023-02-23T05:39:49.763Z,84.86
2023-02-23T05:42:16.313Z,84.91
2023-02-23T05:44:42.856Z,85.28
2023-02-23T05:47:09.457Z,85.00
2023-02-23T05:49:36.096Z,85.00
2023-02-23T05:52:02.917Z,84.50
2023-02-23T05:54:29.460Z,85.17
2023-02-23T05:56:55.983Z,85.10
2023-02-23T05:59:22.516Z,85.17
2023-02-23T06:01:49.089Z,85.90
2023-02-23T06:04:17.273Z,85.49
2023-02-23T06:06:43.936Z,85.35
2023-02-23T06:09:10.567Z,85.79
2023-02-23T06:11:37.127Z,85.25
2023-02-23T06:14:03.711Z,86.32
2023-02-23T06:16:30.818Z,85.95
2023-02-23T06:18:57.373Z,85.85
2023-02-23T06:21:25.098Z,85.75
2023-02-23T06:23:52.464Z,86.47
2023-02-23T06:26:19.102Z,86.56
2023-02-23T06:28:45.637Z,86.30
2023-02-23T06:31:12.255Z,86.36
2023-02-23T06:33:38.890Z,86.42
2023-02-23T06:36:05.699Z,85.56
2023-02-23T06:38:32.338Z,85.70
2023-02-23T06:40:58.896Z,85.25
2023-02-23T06:43:25.423Z,85.53
2023-02-23T06:45:52.015Z,84.71
2023-02-23T06:48:18.544Z,84.56
2023-02-23T06:50:45.119Z,85.11
2023-02-23T06:53:11.648Z,85.00
2023-02-23T06:55:38.220Z,84.31
2023-02-23T06:58:07.202Z,84.60
2023-02-23T07:00:33.949Z,84.07
2023-02-23T07:03:00.505Z,84.88
2023-02-23T07:05:27.363Z,84.21
2023-02-23T07:07:53.996Z,84.19
2023-02-23T07:10:20.867Z,84.51
2023-02-23T07:12:47.411Z,83.92
2023-02-23T07:15:17.785Z,84.47
2023-02-23T07:17:46.144Z,84.99
2023-02-23T07:20:13.185Z,85.59
2023-02-23T07:22:40.046Z,85.67
2023-02-23T07:25:07.424Z,85.23
2023-02-23T07:27:34.508Z,85.86
2023-02-23T07:30:03.405Z,85.82
2023-02-23T07:32:30.357Z,86.18
2023-02-23T07:34:56.928Z,85.73
2023-02-23T07:37:23.457Z,85.13
2023-02-23T07:39:50.053Z,84.55
2023-02-23T07:42:16.591Z,84.36
2023-02-23T07:44:43.101Z,84.08
2023-02-23T07:47:09.665Z,83.46
2023-02-23T07:49:36.210Z,82.80
2023-02-23T07:52:03.003Z,82.73
2023-02-23T07:54:29.516Z,81.90
2023-02-23T07:56:56.315Z,82.33
2023-02-23T07:59:22.940Z,81.15
2023-02-23T08:01:49.441Z,80.67
2023-02-23T08:04:16.055Z,80.42
2023-02-23T08:06:42.616Z,79.94
2023-02-23T08:09:10.683Z,79.62
2023-02-23T08:11:37.731Z,79.53
2023-02-23T08:14:04.300Z,79.73
2023-02-23T08:16:32.890Z,79.20
2023-02-23T08:19:00.852Z,79.50
2023-02-23T08:21:29.508Z,78.86
2023-02-23T08:23:57.464Z,79.24
2023-02-23T08:26:25.402Z,78.18
2023-02-23T08:28:53.117Z,78.37
2023-02-23T08:31:22.874Z,77.18
2023-02-23T08:33:50.024Z,77.51
2023-02-23T08:36:16.664Z,77.94
2023-02-23T08:38:43.343Z,78.21
2023-02-23T08:41:09.940Z,76.88
2023-02-23T08:43:37.472Z,77.49
2023-02-23T08:46:04.123Z,77.22
2023-02-23T08:48:30.709Z,76.44
2023-02-23T08:50:58.890Z,76.96
2023-02-23T08:53:29.642Z,77.16
2023-02-23T08:55:58.478Z,76.52
2023-02-23T08:58:25.117Z,76.11
2023-02-23T09:00:51.751Z,75.73
2023-02-23T09:03:18.324Z,75.62
2023-02-23T09:05:45.203Z,75.33
2023-02-23T09:08:13.760Z,75.16
2023-02-23T09:10:40.892Z,74.96
2023-02-23T09:13:07.426Z,74.32
2023-02-23T09:15:34.065Z,74.78
2023-02-23T09:18:03.528Z,75.80
2023-02-23T09:20:30.304Z,76.42
2023-02-23T09:22:56.872Z,75.97
2023-02-23T09:25:23.871Z,76.05
2023-02-23T09:27:53.751Z,74.84
2023-02-23T09:30:22.229Z,75.02
2023-02-23T09:32:50.270Z,74.50
2023-02-23T09:35:18.623Z,73.71
2023-02-23T09:37:47.817Z,73.62
2023-02-23T09:40:24.085Z,73.02
2023-02-23T09:43:09.124Z,72.30
2023-02-23T09:45:43.753Z,73.21
2023-02-23T09:48:16.791Z,72.45
2023-02-23T09:50:55.132Z,71.38
2023-02-23T09:53:29.251Z,71.77
2023-02-23T09:55:58.520Z,71.04
2023-02-23T09:58:30.924Z,71.22
2023-02-23T10:01:25.510Z,71.13
2023-02-23T10:04:32.444Z,71.55
2023-02-23T10:06:59.232Z,70.52
2023-02-23T10:09:31.879Z,70.61
2023-02-23T10:12:13.612Z,70.89
2023-02-23T10:14:55.557Z,69.99
2023-02-23T10:17:42.592Z,69.65
2023-02-23T10:20:24.840Z,70.11
2023-02-23T10:22:52.639Z,69.21
2023-02-23T10:25:27.174Z,68.96
2023-02-23T10:27:55.765Z,69.10
2023-02-23T10:30:32.285Z,68.69
2023-02-23T10:33:13.627Z,68.70
2023-02-23T10:35:40.428Z,68.01
2023-02-23T10:38:14.548Z,68.22
2023-02-23T10:40:41.771Z,67.26
2023-02-23T10:43:12.605Z,67.39
2023-02-23T10:45:47.305Z,66.64
2023-02-23T10:48:31.900Z,66.33
2023-02-23T10:51:02.866Z,65.61
2023-02-23T10:53:37.690Z,65.53
2023-02-23T10:56:13.897Z,66.49
2023-02-23T10:58:46.432Z,66.19
2023-02-23T11:01:16.759Z,66.74
2023-02-23T11:04:05.354Z,66.39
2023-02-23T11:06:39.613Z,65.95
2023-02-23T11:09:44.548Z,64.94
2023-02-23T11:12:36.684Z,65.40
2023-02-23T11:15:35.249Z,65.02
2023-02-23T11:18:06.856Z,64.88
2023-02-23T11:20:44.345Z,64.48
2023-02-23T11:23:31.373Z,63.48
2023-02-23T11:26:01.647Z,63.00
2023-02-23T11:28:37.332Z,62.24
2023-02-23T11:31:29.345Z,62.11
2023-02-23T11:33:57.401Z,62.23
2023-02-23T11:36:23.878Z,62.24
2023-02-23T11:39:16.246Z,62.86
2023-02-23T11:41:42.826Z,62.69
2023-02-23T11:44:22.569Z,63.19
2023-02-23T11:46:50.933Z,63.55
2023-02-23T11:49:27.482Z,63.40
2023-02-23T11:51:54.827Z,64.03
2023-02-23T11:54:33.467Z,64.15
2023-02-23T11:57:02.702Z,64.26
2023-02-23T11:59:29.902Z,63.30
2023-02-23T12:02:23.124Z,63.23
2023-02-23T12:05:06.250Z,62.51
2023-02-23T12:07:44.912Z,61.43
2023-02-23T12:10:46.336Z,60.96
2023-02-23T12:13:26.555Z,60.07
2023-02-23T12:16:11.869Z,59.78
2023-02-23T12:19:00.612Z,60.88
2023-02-23T12:21:45.224Z,59.84
2023-02-23T12:24:43.619Z,60.39
2023-02-23T12:27:15.960Z,60.37
2023-02-23T12:30:12.031Z,60.03
2023-02-23T12:32:55.123Z,59.58
2023-02-23T12:35:31.413Z,58.37
2023-02-23T12:38:12.053Z,57.52
2023-02-23T12:40:42.171Z,56.28
2023-02-23T12:43:19.683Z,56.18
2023-02-23T12:45:53.399Z,55.63
2023-02-23T12:48:31.698Z,55.81
2023-02-23T12:51:02.208Z,55.48
2023-02-23T12:53:34.116Z,55.69
2023-02-23T12:56:04.407Z,55.15
2023-02-23T12:58:53.551Z,55.05
2023-02-23T13:01:29.678Z,54.42
2023-02-23T13:04:26.417Z,53.14
2023-02-23T13:07:06.689Z,54.13
2023-02-23T13:09:33.138Z,53.69
2023-02-23T13:12:14.751Z,54.59
2023-02-23T13:15:21.494Z,53.96
2023-02-23T13:18:11.639Z,54.59
2023-02-23T13:20:40.770Z,54.44
2023-02-23T13:23:26.604Z,54.29
2023-02-23T13:26:31.162Z,54.08
2023-02-23T13:29:15.184Z,53.34
2023-02-23T13:31:43.466Z,53.32
2023-02-23T13:34:17.175Z,53.56
2023-02-23T13:36:45.896Z,54.26
2023-02-23T13:39:34.009Z,54.03
2023-02-23T13:42:28.081Z,54.79
2023-02-23T13:45:27.716Z,55.30
2023-02-23T13:48:04.704Z,55.99
2023-02-23T13:50:53.127Z,55.81
2023-02-23T13:53:51.753Z,55.88
2023-02-23T13:56:22.440Z,56.79
2023-02-23T13:58:58.472Z,56.38
2023-02-23T14:01:32.960Z,56.71
2023-02-23T14:04:03.038Z,56.37
2023-02-23T14:06:32.786Z,56.35
2023-02-23T14:09:18.307Z,56.43
2023-02-23T14:11:49.613Z,56.21
2023-02-23T14:14:37.179Z,55.96
2023-02-23T14:17:14.051Z,56.05
2023-02-23T14:20:06.701Z,55.71
2023-02-23T14:22:34.749Z,55.98
2023-02-23T14:25:32.266Z,56.22
2023-02-23T14:28:23.048Z,56.29
2023-02-23T14:31:03.424Z,55.85
2023-02-23T14:33:42.110Z,56.23
2023-02-23T14:36:33.367Z,56.70
2023-02-23T14:39:09.123Z,56.23
2023-02-23T14:41:52.696Z,56.89
2023-02-23T14:44:31.768Z,56.66
2023-02-23T14:47:08.950Z,57.13
2023-02-23T14:49:43.586Z,57.16
2023-02-23T14:52:19.745Z,57.39
2023-02-23T14:54:46.889Z,58.20
2023-02-23T14:57:19.735Z,58.27
2023-02-23T14:59:52.719Z,58.46
2023-02-23T15:02:24.322Z,58.29
2023-02-23T15:04:51.292Z,59.03
2023-02-23T15:07:31.006Z,59.15
2023-02-23T15:09:59.891Z,59.63
2023-02-23T15:12:29.918Z,59.66
2023-02-23T15:15:00.262Z,59.63
2023-02-23T15:17:32.912Z,59.93
2023-02-23T15:20:15.987Z,60.36
2023-02-23T15:22:46.803Z,59.61
2023-02-23T15:25:26.245Z,59.70
2023-02-23T15:27:53.177Z,60.30
2023-02-23T15:30:40.209Z,60.59
2023-02-23T15:33:14.322Z,60.05
2023-02-23T15:36:08.628Z,61.04
2023-02-23T15:38:50.753Z,61.22
2023-02-23T15:41:34.639Z,60.40
2023-02-23T15:44:13.436Z,59.46
2023-02-23T15:46:41.560Z,60.67
2023-02-23T15:49:12.473Z,61.13
2023-02-23T15:51:48.630Z,60.98
2023-02-23T15:54:29.712Z,60.85
2023-02-23T15:56:58.792Z,61.74
2023-02-23T15:59:31.181Z,62.15
2023-02-23T16:01:59.789Z,62.03
2023-02-23T16:04:32.515Z,61.69
2023-02-23T16:07:15.402Z,61.38
2023-02-23T16:09:53.168Z,62.14
2023-02-23T16:12:29.234Z,62.42
2023-02-23T16:14:59.725Z,62.17
2023-02-23T16:17:28.119Z,62.60
2023-02-23T16:20:11.325Z,62.53
2023-02-23T16:22:40.014Z,62.32
2023-02-23T16:25:11.534Z,62.57
2023-02-23T16:27:38.602Z,62.35
2023-02-23T16:30:23.524Z,62.47
2023-02-23T16:33:40.856Z,62.49
2023-02-23T16:36:10.068Z,62.72
2023-02-23T16:38:48.806Z,62.49
2023-02-23T16:41:22.907Z,62.38
2023-02-23T16:43:51.550Z,62.63
2023-02-23T16:46:19.365Z,62.55
2023-02-23T16:48:46.398Z,62.58
2023-02-23T16:51:18.471Z,62.37
2023-02-23T16:53:45.670Z,62.97
2023-02-23T16:56:22.789Z,62.83
2023-02-23T16:58:56.052Z,62.83
2023-02-23T17:01:23.114Z,63.18
2023-02-23T17:03:53.193Z,63.28
2023-02-23T17:06:21.434Z,63.68
2023-02-23T17:08:57.557Z,63.61
2023-02-23T17:11:25.406Z,63.33
2023-02-23T17:13:51.982Z,63.61
2023-02-23T17:16:18.863Z,63.60
2023-02-23T17:18:45.777Z,63.71
2023-02-23T17:21:14.383Z,63.22
2023-02-23T17:23:51.218Z,63.06
2023-02-23T17:26:20.621Z,63.37
2023-02-23T17:28:47.565Z,63.42
2023-02-23T17:31:16.257Z,63.38
2023-02-23T17:33:43.813Z,63.57
2023-02-23T17:36:13.393Z,63.77
2023-02-23T17:38:44.605Z,63.95
2023-02-23T17:41:16.192Z,63.76
2023-02-23T17:43:43.005Z,63.89
2023-02-23T17:46:10.560Z,63.39
2023-02-23T17:48:37.323Z,63.43
2023-02-23T17:51:08.343Z,64.11
2023-02-23T17:53:36.028Z,63.78
2023-02-23T17:56:02.679Z,64.07
2023-02-23T17:58:29.649Z,64.01
2023-02-23T18:00:57.692Z,64.07
2023-02-23T18:03:25.575Z,63.87
2023-02-23T18:05:52.863Z,63.70
2023-02-23T18:08:20.254Z,64.02
2023-02-23T18:10:51.944Z,63.59
2023-02-23T18:13:19.288Z,63.70
2023-02-23T18:15:50.097Z,63.57
2023-02-23T18:18:17.191Z,63.94
2023-02-23T18:21:02.785Z,63.52
2023-02-23T18:23:32.574Z,63.55
2023-02-23T18:26:14.532Z,64.21
2023-02-23T18:28:44.360Z,64.10
2023-02-23T18:31:23.988Z,64.45
2023-02-23T18:33:52.947Z,64.42
2023-02-23T18:36:37.595Z,63.95
2023-02-23T18:39:07.133Z,63.83
2023-02-23T18:41:33.874Z,64.39
2023-02-23T18:44:03.031Z,64.22
2023-02-23T18:46:29.754Z,64.03
2023-02-23T18:48:56.708Z,64.64
2023-02-23T18:51:25.106Z,65.05
2023-02-23T18:53:53.317Z,64.00
2023-02-23T18:56:25.150Z,64.57
2023-02-23T18:59:01.513Z,64.30
2023-02-23T19:01:31.189Z,64.67
2023-02-23T19:04:01.214Z,64.51
2023-02-23T19:06:28.688Z,64.87
2023-02-23T19:08:59.371Z,65.50
2023-02-23T19:11:28.612Z,64.57
2023-02-23T19:13:56.842Z,65.04
2023-02-23T19:16:24.824Z,64.93
2023-02-23T19:18:52.820Z,64.29
2023-02-23T19:21:23.442Z,64.52
2023-02-23T19:23:54.515Z,64.37
2023-02-23T19:26:21.396Z,63.94
2023-02-23T19:28:48.541Z,64.43
2023-02-23T19:31:21.093Z,64.27
2023-02-23T19:33:49.634Z,63.89
2023-02-23T19:36:19.888Z,63.99
2023-02-23T19:38:47.346Z,63.24
2023-02-23T19:41:17.457Z,63.45
2023-02-23T19:43:44.453Z,63.49
2023-02-23T19:46:13.680Z,64.24
2023-02-23T19:48:41.382Z,63.95
2023-02-23T19:51:12.432Z,64.36
2023-02-23T19:53:39.935Z,64.44
2023-02-23T19:56:12.314Z,63.99
2023-02-23T19:58:39.289Z,64.46
2023-02-23T20:01:08.012Z,63.94
2023-02-23T20:03:35.675Z,64.54
2023-02-23T20:06:05.769Z,64.13
2023-02-23T20:08:32.842Z,64.65
2023-02-23T20:11:00.478Z,65.28
2023-02-23T20:13:27.058Z,65.36
2023-02-23T20:16:20.581Z,65.02
2023-02-23T20:18:47.212Z,65.75
2023-02-23T20:21:20.079Z,65.29
2023-02-23T20:23:47.524Z,65.98
2023-02-23T20:26:18.649Z,66.29
2023-02-23T20:28:45.995Z,65.88
2023-02-23T20:31:18.242Z,66.47
2023-02-23T20:33:44.954Z,65.80
2023-02-23T20:36:12.189Z,66.10
2023-02-23T20:38:39.073Z,66.78
2023-02-23T20:41:06.188Z,66.42
2023-02-23T20:43:32.790Z,66.89
2023-02-23T20:46:02.887Z,66.18
2023-02-23T20:48:34.728Z,66.63
2023-02-23T20:51:01.877Z,66.18
2023-02-23T20:53:29.448Z,66.24
2023-02-23T20:55:56.318Z,66.29
2023-02-23T20:58:26.049Z,66.43
2023-02-23T21:00:54.702Z,66.40
2023-02-23T21:03:21.846Z,66.07
2023-02-23T21:05:49.071Z,66.39
2023-02-23T21:08:15.960Z,66.62
2023-02-23T21:10:42.558Z,66.79
2023-02-23T21:13:12.344Z,65.89
2023-02-23T21:15:40.502Z,65.95
2023-02-23T21:18:07.997Z,66.52
2023-02-23T21:20:35.387Z,67.00
2023-02-23T21:23:04.212Z,65.94
2023-02-23T21:25:31.028Z,66.59
2023-02-23T21:28:01.669Z,66.77
2023-02-23T21:30:28.690Z,66.52
2023-02-23T21:32:59.569Z,66.56
2023-02-23T21:35:26.326Z,66.60
2023-02-23T21:37:52.930Z,66.64
2023-02-23T21:40:21.090Z,66.34
2023-02-23T21:42:49.258Z,66.40
2023-02-23T21:45:17.166Z,66.72
2023-02-23T21:47:45.929Z,66.72
2023-02-23T21:50:15.663Z,66.86
2023-02-23T21:52:43.914Z,66.22
2023-02-23T21:55:23.461Z,66.97
2023-02-23T21:57:50.855Z,66.58
2023-02-23T22:00:19.065Z,66.64
2023-02-23T22:02:46.511Z,66.95
2023-02-23T22:05:15.240Z,66.73
2023-02-23T22:07:46.691Z,67.34
2023-02-23T22:10:13.262Z,67.06
2023-02-23T22:12:39.869Z,67.08
2023-02-23T22:15:07.203Z,66.92
2023-02-23T22:17:34.107Z,67.30
2023-02-23T22:20:00.979Z,68.09
2023-02-23T22:22:27.912Z,67.55
2023-02-23T22:24:54.517Z,67.38
2023-02-23T22:27:22.183Z,67.58
2023-02-23T22:29:48.912Z,67.76
2023-02-23T22:32:17.564Z,68.44
2023-02-23T22:34:44.317Z,67.90
2023-02-23T22:37:11.110Z,67.87
2023-02-23T22:39:41.634Z,68.48
2023-02-23T22:42:12.636Z,68.30
2023-02-23T22:44:39.297Z,68.82
2023-02-23T22:47:06.775Z,68.86
2023-02-23T22:49:34.728Z,68.70
2023-02-23T22:52:01.339Z,68.62
2023-02-23T22:54:27.951Z,69.54
2023-02-23T22:56:54.917Z,68.58
2023-02-23T22:59:21.524Z,69.09
2023-02-23T23:01:50.159Z,69.32
2023-02-23T23:04:17.244Z,69.97
2023-02-23T23:06:44.034Z,69.80
2023-02-23T23:09:12.330Z,69.02
2023-02-23T23:11:41.844Z,69.80
2023-02-23T23:14:10.345Z,70.63
2023-02-23T23:16:48.591Z,71.09
2023-02-23T23:19:24.773Z,71.02
2023-02-23T23:21:56.775Z,70.89
2023-02-23T23:24:24.749Z,70.48
2023-02-23T23:27:00.056Z,70.78
2023-02-23T23:29:32.398Z,70.85
2023-02-23T23:32:01.567Z,71.45
2023-02-23T23:34:28.347Z,71.69
2023-02-23T23:36:55.476Z,71.48
2023-02-23T23:39:23.581Z,70.54
2023-02-23T23:41:50.413Z,71.57
2023-02-23T23:44:22.707Z,71.15
2023-02-23T23:46:53.051Z,71.67
2023-02-23T23:49:22.964Z,71.53
2023-02-23T23:51:52.407Z,71.61
2023-02-23T23:54:26.886Z,71.55
2023-02-23T23:56:53.608Z,71.08
2023-02-23T23:59:22.803Z,71.79
